Weyburn, Saskatchewan

9:33 AM CST on September 30, 2016 (GMT -0600)
Weyburn, Saskatchewan | | Change Station

Elev 1877 ft 49.67 °N, 103.83 °W | Updated 9 minutes ago

Mostly Cloudy
Mostly Cloudy
51.1 °F
Feels Like 51.1 °F
N
10.6
Wind Variable Wind from East

Today
High -- | Low -- °F
--% Chance of Precip.
Yesterday
High -- | Low -- °F
Precip. -- in
Pressure 30.08 in
Visibility 15.0 miles
Clouds Mostly Cloudy 12000 ft
Mostly Cloudy 23000 ft
Dew Point 47 °F
Humidity 89%
Rainfall Not available.
Snow Depth Not available.
6:54 AM 6:34 PM
Waning Crescent, 0% visible
METAR CYEN 301500Z 10010G15KT 15SM BKN120 BKN230 12/09 A3005 RMK AC5CI2 SLP185
Pressure 30.08 in
Visibility 15.0 miles
Clouds Mostly Cloudy 12000 ft
Mostly Cloudy 23000 ft
Dew Point 47 °F
Humidity 89%
Rainfall Not available.
Snow Depth Not available.
6:54 AM 6:34 PM
Waning Crescent, 0% visible
METAR CYEN 301500Z 10010G15KT 15SM BKN120 BKN230 12/09 A3005 RMK AC5CI2 SLP185

10-Day Weather Forecast

No radar image for this location.
×

Almanac

Astronomy

Sep. 30, 2016 Rise Set
Actual Time
Civil Twilight
Nautical Twilight
Astronomical Twilight
Moon
Length of Visible Light
Length of Day
Tomorrow will be .
, % of the Moon is Illuminated

Today's Extremes

Country Highs Country Lows

Community

WunderPhotos

Upload Photos

1,942,738 photos uploaded!

WunderBlog® & News

Nearby

Air Quality

  Air Quality AQ Index Pollutant
Not available.

Snow Depth

Station Depth Elevation

Earthquake Activity

City Distance Mag. Time & Date
Minimum magnitude displayed is 2.5.

Coastal Water Temperatures

Place Temperature

Stations

Nearby Weather Stations

Station Location Temp. Windchill Dew Point Humidity Wind Precip. Elev Updated Type
                   

Watches & Warnings

There are currently no watches in effect.